createdAt,value
2018-08-13T00:00:51.673Z,0
2018-08-13T00:01:51.418Z,0
2018-08-13T00:02:51.401Z,0
2018-08-13T00:03:51.406Z,0
2018-08-13T00:04:51.654Z,0
2018-08-13T00:05:51.651Z,0
2018-08-13T00:06:51.643Z,0
2018-08-13T00:07:51.642Z,0
2018-08-13T00:08:51.643Z,0
2018-08-13T00:09:51.123Z,0
2018-08-13T00:10:51.378Z,0
2018-08-13T00:11:51.622Z,0
2018-08-13T00:12:51.107Z,0
2018-08-13T00:13:51.104Z,0
2018-08-13T00:14:51.096Z,0
2018-08-13T00:15:51.354Z,0
2018-08-13T00:16:51.596Z,0
2018-08-13T00:17:51.433Z,0
2018-08-13T00:18:51.602Z,0
2018-08-13T00:19:51.334Z,0
2018-08-13T00:20:51.602Z,0
2018-08-13T00:21:51.584Z,0
2018-08-13T00:22:51.316Z,0
2018-08-13T00:23:51.320Z,0
2018-08-13T00:24:51.318Z,0
2018-08-13T00:25:51.305Z,0
2018-08-13T00:26:51.304Z,0
2018-08-13T00:27:51.300Z,0
2018-08-13T00:28:51.298Z,0
2018-08-13T00:29:51.545Z,0
2018-08-13T00:30:51.595Z,0
2018-08-13T00:31:51.540Z,0
2018-08-13T00:32:51.277Z,0
2018-08-13T00:33:51.589Z,0
2018-08-13T00:34:51.271Z,0
2018-08-13T00:35:51.527Z,0
2018-08-13T00:36:51.004Z,0
2018-08-13T00:37:51.259Z,0
2018-08-13T00:38:51.512Z,0
2018-08-13T00:39:51.505Z,0
2018-08-13T00:40:51.515Z,0
2018-08-13T00:41:50.981Z,0
2018-08-13T00:42:51.502Z,0
2018-08-13T00:43:51.500Z,0
2018-08-13T00:44:50.973Z,0
2018-08-13T00:45:51.478Z,0
2018-08-13T00:46:51.481Z,0
2018-08-13T00:47:51.473Z,0
2018-08-13T00:48:51.467Z,0
2018-08-13T00:49:51.199Z,0
2018-08-13T00:50:51.204Z,0
2018-08-13T00:51:50.933Z,0
2018-08-13T00:52:51.450Z,0
2018-08-13T00:53:51.450Z,0
2018-08-13T00:54:51.442Z,0
2018-08-13T00:55:51.174Z,0
2018-08-13T00:56:51.432Z,0
2018-08-13T00:57:51.427Z,0
2018-08-13T00:58:51.173Z,0
2018-08-13T00:59:51.164Z,0
2018-08-13T01:00:51.417Z,0
2018-08-13T01:01:51.412Z,0
2018-08-13T01:02:51.407Z,0
2018-08-13T01:03:51.399Z,0
2018-08-13T01:04:51.184Z,0
2018-08-13T01:05:51.181Z,0
2018-08-13T01:06:51.380Z,0
2018-08-13T01:07:51.387Z,0
2018-08-13T01:08:51.370Z,0
2018-08-13T01:09:51.410Z,0
2018-08-13T01:10:51.373Z,0
2018-08-13T01:11:51.366Z,0
2018-08-13T01:12:51.356Z,0
2018-08-13T01:13:51.355Z,0
2018-08-13T01:14:51.100Z,0
2018-08-13T01:15:51.087Z,0
2018-08-13T01:16:51.341Z,0
2018-08-13T01:17:51.336Z,0
2018-08-13T01:18:51.339Z,0
2018-08-13T01:19:51.066Z,0
2018-08-13T01:20:51.382Z,0
2018-08-13T01:21:51.325Z,0
2018-08-13T01:22:51.320Z,0
2018-08-13T01:23:51.060Z,0
2018-08-13T01:24:51.305Z,0
2018-08-13T01:25:51.302Z,0
2018-08-13T01:26:51.040Z,0
2018-08-13T01:27:51.316Z,0
2018-08-13T01:28:50.775Z,0
2018-08-13T01:29:51.025Z,0
2018-08-13T01:30:51.022Z,0
2018-08-13T01:31:51.289Z,0
2018-08-13T01:32:51.021Z,0
2018-08-13T01:33:51.261Z,0
2018-08-13T01:34:51.252Z,0
2018-08-13T01:35:50.994Z,0
2018-08-13T01:36:50.732Z,0
2018-08-13T01:37:51.243Z,0
2018-08-13T01:38:50.978Z,0
2018-08-13T01:39:51.242Z,0
2018-08-13T01:40:50.975Z,0
2018-08-13T01:41:50.985Z,0
2018-08-13T01:42:51.220Z,0
2018-08-13T01:43:51.218Z,0
2018-08-13T01:44:50.948Z,0
2018-08-13T01:45:50.947Z,0
2018-08-13T01:46:51.195Z,0
2018-08-13T01:47:50.939Z,0
2018-08-13T01:48:50.933Z,0
2018-08-13T01:49:51.192Z,0
2018-08-13T01:50:51.187Z,0
2018-08-13T01:51:51.180Z,0
2018-08-13T01:52:50.712Z,0
2018-08-13T01:53:51.172Z,0
2018-08-13T01:54:51.156Z,0
2018-08-13T01:55:50.644Z,0
2018-08-13T01:56:51.150Z,0
2018-08-13T01:57:51.155Z,0
2018-08-13T01:58:51.147Z,0
2018-08-13T01:59:51.141Z,0
2018-08-13T02:00:50.876Z,0
2018-08-13T02:01:51.620Z,0
2018-08-13T02:02:50.865Z,0
2018-08-13T02:03:51.121Z,0
2018-08-13T02:04:51.113Z,0
2018-08-13T02:05:50.850Z,0
2018-08-13T02:06:50.590Z,0
2018-08-13T02:07:51.105Z,0
2018-08-13T02:08:51.098Z,0
2018-08-13T02:09:51.098Z,0
2018-08-13T02:10:50.830Z,0
2018-08-13T02:11:51.083Z,0
2018-08-13T02:12:51.081Z,0
2018-08-13T02:13:50.822Z,0
2018-08-13T02:14:51.066Z,0
2018-08-13T02:15:50.807Z,0
2018-08-13T02:16:50.543Z,0
2018-08-13T02:17:51.051Z,0
2018-08-13T02:18:51.049Z,0
2018-08-13T02:19:51.035Z,0
2018-08-13T02:20:51.036Z,0
2018-08-13T02:21:51.029Z,0
2018-08-13T02:22:51.025Z,0
2018-08-13T02:23:50.769Z,0
2018-08-13T02:24:51.022Z,0
2018-08-13T02:25:51.022Z,0
2018-08-13T02:26:51.002Z,0
2018-08-13T02:27:50.998Z,0
2018-08-13T02:28:51.003Z,0
2018-08-13T02:29:50.747Z,0
2018-08-13T02:30:50.477Z,0
2018-08-13T02:31:50.737Z,0
2018-08-13T02:32:50.984Z,0
2018-08-13T02:33:50.978Z,0
2018-08-13T02:34:50.974Z,0
2018-08-13T02:35:50.710Z,0
2018-08-13T02:36:50.706Z,0
2018-08-13T02:37:51.051Z,0
2018-08-13T02:38:50.698Z,0
2018-08-13T02:39:50.941Z,0
2018-08-13T02:40:50.685Z,0
2018-08-13T02:41:50.936Z,0
2018-08-13T02:42:50.928Z,0
2018-08-13T02:43:50.939Z,0
2018-08-13T02:44:50.917Z,0
2018-08-13T02:45:50.657Z,0
2018-08-13T02:46:50.661Z,0
2018-08-13T02:47:50.654Z,0
2018-08-13T02:48:50.644Z,0
2018-08-13T02:49:50.381Z,0
2018-08-13T02:50:50.892Z,0
2018-08-13T02:51:50.885Z,0
2018-08-13T02:52:50.633Z,0
2018-08-13T02:53:50.880Z,0
2018-08-13T02:54:50.870Z,0
2018-08-13T02:55:50.617Z,0
2018-08-13T02:56:50.608Z,0
2018-08-13T02:57:50.593Z,0
2018-08-13T02:58:50.890Z,0
2018-08-13T02:59:50.333Z,0
2018-08-13T03:00:50.586Z,0
2018-08-13T03:01:50.830Z,0
2018-08-13T03:02:50.636Z,0
2018-08-13T03:03:50.561Z,0
2018-08-13T03:04:50.796Z,0
2018-08-13T03:05:50.295Z,0
2018-08-13T03:06:50.546Z,0
2018-08-13T03:07:50.546Z,0
2018-08-13T03:08:50.282Z,0
2018-08-13T03:09:50.786Z,0
2018-08-13T03:10:50.283Z,0
2018-08-13T03:11:50.790Z,0
2018-08-13T03:12:50.514Z,0
2018-08-13T03:13:50.517Z,0
2018-08-13T03:14:50.813Z,0
2018-08-13T03:15:50.518Z,0
2018-08-13T03:16:50.505Z,0
2018-08-13T03:17:50.743Z,0
2018-08-13T03:18:50.754Z,0
2018-08-13T03:19:50.503Z,0
2018-08-13T03:20:50.473Z,0
2018-08-13T03:21:50.473Z,0
2018-08-13T03:22:50.472Z,4
2018-08-13T03:23:50.720Z,4
2018-08-13T03:24:50.456Z,4
2018-08-13T03:25:50.451Z,0
2018-08-13T03:26:50.446Z,4
2018-08-13T03:27:50.438Z,4
2018-08-13T03:28:50.436Z,4
2018-08-13T03:29:50.424Z,8
2018-08-13T03:30:50.680Z,8
2018-08-13T03:31:50.427Z,8
2018-08-13T03:32:50.150Z,12
2018-08-13T03:33:50.660Z,12
2018-08-13T03:34:50.653Z,16
2018-08-13T03:35:50.662Z,16
2018-08-13T03:36:50.649Z,20
2018-08-13T03:37:50.641Z,20
2018-08-13T03:38:50.639Z,24
2018-08-13T03:39:50.629Z,28
2018-08-13T03:40:50.370Z,32
2018-08-13T03:41:50.625Z,40
2018-08-13T03:42:50.608Z,44
2018-08-13T03:43:50.608Z,52
2018-08-13T03:44:50.342Z,56
2018-08-13T03:45:50.079Z,64
2018-08-13T03:46:50.596Z,68
2018-08-13T03:47:50.591Z,76
2018-08-13T03:48:50.581Z,88
2018-08-13T03:49:50.573Z,96
2018-08-13T03:50:50.568Z,108
2018-08-13T03:51:50.569Z,116
2018-08-13T03:52:49.793Z,132
2018-08-13T03:53:50.949Z,144
2018-08-13T03:54:50.545Z,160
2018-08-13T03:55:50.285Z,176
2018-08-13T03:56:50.281Z,192
2018-08-13T03:57:50.534Z,208
2018-08-13T03:58:50.532Z,224
2018-08-13T03:59:50.270Z,244
2018-08-13T04:00:50.265Z,264
2018-08-13T04:01:50.514Z,284
2018-08-13T04:02:50.509Z,308
2018-08-13T04:03:50.497Z,332
2018-08-13T04:04:50.237Z,352
2018-08-13T04:05:50.498Z,384
2018-08-13T04:06:50.482Z,408
2018-08-13T04:07:50.477Z,436
2018-08-13T04:08:50.480Z,468
2018-08-13T04:09:50.211Z,496
2018-08-13T04:10:50.460Z,528
2018-08-13T04:11:50.201Z,560
2018-08-13T04:12:50.336Z,588
2018-08-13T04:13:49.932Z,616
2018-08-13T04:14:50.189Z,644
2018-08-13T04:15:50.435Z,672
2018-08-13T04:16:50.433Z,700
2018-08-13T04:17:50.429Z,736
2018-08-13T04:18:50.426Z,768
2018-08-13T04:19:50.420Z,800
2018-08-13T04:20:50.155Z,828
2018-08-13T04:21:50.407Z,860
2018-08-13T04:22:50.406Z,892
2018-08-13T04:23:50.394Z,920
2018-08-13T04:24:49.874Z,952
2018-08-13T04:25:50.390Z,984
2018-08-13T04:26:50.383Z,1016
2018-08-13T04:27:50.114Z,1044
2018-08-13T04:28:50.119Z,1076
2018-08-13T04:29:50.109Z,1108
2018-08-13T04:30:50.117Z,1136
2018-08-13T04:31:50.359Z,1160
2018-08-13T04:32:50.761Z,1192
2018-08-13T04:33:50.347Z,1220
2018-08-13T04:34:50.348Z,1248
2018-08-13T04:35:50.337Z,1272
2018-08-13T04:36:50.333Z,1296
2018-08-13T04:37:50.326Z,1324
2018-08-13T04:38:50.609Z,1348
2018-08-13T04:39:50.058Z,1372
2018-08-13T04:40:50.053Z,1396
2018-08-13T04:41:50.053Z,1420
2018-08-13T04:42:50.041Z,1444
2018-08-13T04:43:50.306Z,1468
2018-08-13T04:44:50.294Z,1496
2018-08-13T04:45:50.289Z,1516
2018-08-13T04:46:50.284Z,1544
2018-08-13T04:47:50.273Z,1568
2018-08-13T04:48:50.274Z,1596
2018-08-13T04:49:50.266Z,1620
2018-08-13T04:50:50.261Z,1648
2018-08-13T04:51:50.270Z,1676
2018-08-13T04:52:49.995Z,1696
2018-08-13T04:53:50.256Z,1720
2018-08-13T04:54:50.241Z,1748
2018-08-13T04:55:50.237Z,1772
2018-08-13T04:56:50.274Z,1796
2018-08-13T04:57:49.974Z,1820
2018-08-13T04:58:50.275Z,1844
2018-08-13T04:59:50.213Z,1868
2018-08-13T05:00:50.213Z,1896
2018-08-13T05:01:49.968Z,1916
2018-08-13T05:02:49.952Z,1940
2018-08-13T05:03:49.957Z,1960
2018-08-13T05:04:50.190Z,1980
2018-08-13T05:05:50.181Z,2000
2018-08-13T05:06:50.185Z,2016
2018-08-13T05:07:50.188Z,2040
2018-08-13T05:08:50.185Z,2068
2018-08-13T05:09:49.665Z,2096
2018-08-13T05:10:49.913Z,2116
2018-08-13T05:11:50.170Z,2132
2018-08-13T05:12:50.164Z,2148
2018-08-13T05:13:50.151Z,2164
2018-08-13T05:14:49.642Z,2180
2018-08-13T05:15:50.162Z,2196
2018-08-13T05:16:50.140Z,2212
2018-08-13T05:17:50.142Z,2228
2018-08-13T05:18:50.139Z,2244
2018-08-13T05:19:50.128Z,2256
2018-08-13T05:20:50.128Z,2272
2018-08-13T05:21:50.124Z,2276
2018-08-13T05:22:49.876Z,2292
2018-08-13T05:23:50.132Z,2300
2018-08-13T05:24:50.112Z,2312
2018-08-13T05:25:49.859Z,2312
2018-08-13T05:26:49.592Z,2320
2018-08-13T05:27:49.844Z,2348
2018-08-13T05:28:50.094Z,2348
2018-08-13T05:29:49.833Z,2376
2018-08-13T05:30:49.825Z,2388
2018-08-13T05:31:49.829Z,2396
2018-08-13T05:32:49.825Z,2408
2018-08-13T05:33:50.077Z,2416
2018-08-13T05:34:50.070Z,2412
2018-08-13T05:35:49.807Z,2412
2018-08-13T05:36:50.064Z,2408
2018-08-13T05:37:50.057Z,2416
2018-08-13T05:38:49.799Z,2424
2018-08-13T05:39:50.052Z,2428
2018-08-13T05:40:49.797Z,2428
2018-08-13T05:41:50.035Z,2452
2018-08-13T05:42:49.786Z,2488
2018-08-13T05:43:49.778Z,2508
2018-08-13T05:44:49.770Z,2508
2018-08-13T05:45:49.779Z,2504
2018-08-13T05:46:50.027Z,2528
2018-08-13T05:47:50.016Z,2556
2018-08-13T05:48:50.016Z,2596
2018-08-13T05:49:49.756Z,2632
2018-08-13T05:50:50.015Z,2660
2018-08-13T05:51:49.752Z,2684
2018-08-13T05:52:49.863Z,2728
2018-08-13T05:53:49.997Z,2768
2018-08-13T05:54:50.001Z,2816
2018-08-13T05:55:49.742Z,2856
2018-08-13T05:56:49.992Z,2892
2018-08-13T05:57:49.733Z,2936
2018-08-13T05:58:49.722Z,2984
2018-08-13T05:59:49.979Z,3036
2018-08-13T06:00:49.985Z,3072
2018-08-13T06:01:49.718Z,3108
2018-08-13T06:02:49.462Z,3144
2018-08-13T06:03:50.012Z,3164
2018-08-13T06:04:49.960Z,3184
2018-08-13T06:05:49.439Z,3196
2018-08-13T06:06:49.702Z,3188
2018-08-13T06:07:49.698Z,3192
2018-08-13T06:08:49.956Z,3196
2018-08-13T06:09:49.952Z,3208
2018-08-13T06:10:49.686Z,3224
2018-08-13T06:11:49.809Z,3236
2018-08-13T06:12:49.683Z,3260
2018-08-13T06:13:49.693Z,3284
2018-08-13T06:14:49.930Z,3300
2018-08-13T06:15:49.930Z,3344
2018-08-13T06:16:49.675Z,3384
2018-08-13T06:17:49.928Z,3424
2018-08-13T06:18:49.667Z,3468
2018-08-13T06:19:49.924Z,3544
2018-08-13T06:20:49.919Z,3596
2018-08-13T06:21:49.659Z,3616
2018-08-13T06:22:49.659Z,3612
2018-08-13T06:23:49.906Z,3604
2018-08-13T06:24:49.645Z,3584
2018-08-13T06:25:49.132Z,3568
2018-08-13T06:26:49.909Z,3548
2018-08-13T06:27:49.900Z,3540
2018-08-13T06:28:49.900Z,3428
2018-08-13T06:29:49.901Z,3504
2018-08-13T06:30:49.889Z,3492
2018-08-13T06:31:49.918Z,3476
2018-08-13T06:32:49.895Z,3444
2018-08-13T06:33:49.370Z,3416
2018-08-13T06:34:49.367Z,3384
2018-08-13T06:35:49.937Z,3356
2018-08-13T06:36:49.885Z,3336
2018-08-13T06:37:49.901Z,3320
2018-08-13T06:38:49.873Z,3292
2018-08-13T06:39:49.609Z,3244
2018-08-13T06:40:49.907Z,3184
2018-08-13T06:41:49.355Z,3120
2018-08-13T06:42:49.874Z,3104
2018-08-13T06:43:49.885Z,3108
2018-08-13T06:44:49.862Z,3124
2018-08-13T06:45:49.609Z,3164
2018-08-13T06:46:49.862Z,3212
2018-08-13T06:47:49.594Z,3352
2018-08-13T06:48:49.861Z,4264
2018-08-13T06:49:49.339Z,5636
2018-08-13T06:50:49.589Z,8448
2018-08-13T06:51:49.841Z,14848
2018-08-13T06:52:49.845Z,20960
2018-08-13T06:53:49.604Z,30976
2018-08-13T06:54:49.586Z,33632
2018-08-13T06:55:49.582Z,36512
2018-08-13T06:56:49.583Z,38208
2018-08-13T06:57:49.840Z,38048
2018-08-13T06:58:49.838Z,37536
2018-08-13T06:59:49.579Z,36000
2018-08-13T07:00:50.037Z,37216
2018-08-13T07:01:49.828Z,36672
2018-08-13T07:02:49.581Z,36864
2018-08-13T07:03:49.578Z,38560
2018-08-13T07:04:49.373Z,36864
2018-08-13T07:05:49.325Z,37376
2018-08-13T07:06:49.911Z,36736
2018-08-13T07:07:49.838Z,34848
2018-08-13T07:08:49.844Z,35872
2018-08-13T07:09:49.850Z,38592
2018-08-13T07:10:49.596Z,39264
2018-08-13T07:11:49.606Z,39392
2018-08-13T07:12:49.608Z,39264
2018-08-13T07:13:49.870Z,37376
2018-08-13T07:14:49.090Z,35392
2018-08-13T07:15:50.032Z,37344
2018-08-13T07:16:49.877Z,41504
2018-08-13T07:17:49.625Z,42976
2018-08-13T07:18:49.876Z,41344
2018-08-13T07:19:49.622Z,40672
2018-08-13T07:20:49.372Z,40256
2018-08-13T07:21:49.632Z,41536
2018-08-13T07:22:49.926Z,42016
2018-08-13T07:23:49.898Z,43072
2018-08-13T07:24:49.915Z,42912
2018-08-13T07:25:49.920Z,38848
2018-08-13T07:26:49.927Z,33184
2018-08-13T07:27:49.499Z,23008
2018-08-13T07:28:49.933Z,10764
2018-08-13T07:29:49.435Z,6836
2018-08-13T07:30:49.960Z,6116
2018-08-13T07:31:49.966Z,5132
2018-08-13T07:32:49.980Z,5168
2018-08-13T07:33:50.365Z,5080
2018-08-13T07:34:49.985Z,5004
2018-08-13T07:35:49.473Z,4700
2018-08-13T07:36:49.999Z,4552
2018-08-13T07:37:49.756Z,4408
2018-08-13T07:38:50.029Z,4364
2018-08-13T07:39:50.018Z,4248
2018-08-13T07:40:50.026Z,4120
2018-08-13T07:41:50.050Z,4044
2018-08-13T07:42:49.794Z,3948
2018-08-13T07:43:50.053Z,3876
2018-08-13T07:44:50.068Z,3952
2018-08-13T07:45:49.983Z,3868
2018-08-13T07:46:50.075Z,3816
2018-08-13T07:47:50.091Z,3788
2018-08-13T07:48:50.091Z,3832
2018-08-13T07:49:49.708Z,3820
2018-08-13T07:50:50.178Z,3780
2018-08-13T07:51:50.648Z,3716
2018-08-13T07:52:49.866Z,3672
2018-08-13T07:53:49.872Z,3612
2018-08-13T07:54:50.140Z,3540
2018-08-13T07:55:49.656Z,3552
2018-08-13T07:56:50.151Z,3556
2018-08-13T07:57:49.901Z,3536
2018-08-13T07:58:50.173Z,3508
2018-08-13T07:59:49.916Z,3480
2018-08-13T08:00:50.184Z,3456
2018-08-13T08:01:49.676Z,3436
2018-08-13T08:02:49.938Z,3404
2018-08-13T08:03:50.200Z,3388
2018-08-13T08:04:49.947Z,3372
2018-08-13T08:05:50.207Z,3364
2018-08-13T08:06:50.222Z,3372
2018-08-13T08:07:50.228Z,3368
2018-08-13T08:08:49.971Z,3372
2018-08-13T08:09:49.977Z,3392
2018-08-13T08:10:50.241Z,3392
2018-08-13T08:11:50.246Z,3388
2018-08-13T08:12:49.996Z,3392
2018-08-13T08:13:50.259Z,3384
2018-08-13T08:14:50.592Z,3372
2018-08-13T08:15:50.309Z,3368
2018-08-13T08:16:50.274Z,3360
2018-08-13T08:17:50.287Z,3344
2018-08-13T08:18:49.769Z,3316
2018-08-13T08:19:50.033Z,3280
2018-08-13T08:20:50.291Z,3248
2018-08-13T08:21:50.304Z,3220
2018-08-13T08:22:50.305Z,3180
2018-08-13T08:23:50.313Z,3144
2018-08-13T08:24:50.312Z,3144
2018-08-13T08:25:50.312Z,3140
2018-08-13T08:26:50.321Z,3132
2018-08-13T08:27:50.326Z,3124
2018-08-13T08:28:50.339Z,3120
2018-08-13T08:29:50.334Z,3128
2018-08-13T08:30:50.089Z,3132
2018-08-13T08:31:50.337Z,3132
2018-08-13T08:32:50.363Z,3128
2018-08-13T08:33:50.370Z,3104
2018-08-13T08:34:50.773Z,3100
2018-08-13T08:35:50.114Z,3096
2018-08-13T08:36:49.861Z,3100
2018-08-13T08:37:50.123Z,3096
2018-08-13T08:38:50.122Z,3092
2018-08-13T08:39:50.121Z,3080
2018-08-13T08:40:50.577Z,3072
2018-08-13T08:41:50.133Z,3084
2018-08-13T08:42:50.135Z,3088
2018-08-13T08:43:50.151Z,3096
2018-08-13T08:44:49.636Z,3108
2018-08-13T08:45:50.450Z,3120
2018-08-13T08:46:50.155Z,3132
2018-08-13T08:47:50.413Z,3156
2018-08-13T08:48:50.425Z,3168
2018-08-13T08:49:50.165Z,3188
2018-08-13T08:50:49.919Z,3204
2018-08-13T08:51:50.186Z,3140
2018-08-13T08:52:50.467Z,3176
2018-08-13T08:53:50.448Z,3152
2018-08-13T08:54:50.193Z,3304
2018-08-13T08:55:50.454Z,3336
2018-08-13T08:56:50.199Z,3424
2018-08-13T08:57:50.201Z,3512
2018-08-13T08:58:49.949Z,3560
2018-08-13T08:59:49.957Z,3580
2018-08-13T09:00:50.636Z,3596
2018-08-13T09:01:49.963Z,3600
2018-08-13T09:02:50.490Z,3548
2018-08-13T09:03:50.231Z,3504
2018-08-13T09:04:50.490Z,3464
2018-08-13T09:05:50.018Z,3480
2018-08-13T09:06:50.500Z,3532
2018-08-13T09:07:49.994Z,3660
2018-08-13T09:08:50.516Z,3716
2018-08-13T09:09:50.510Z,3820
2018-08-13T09:10:50.515Z,3884
2018-08-13T09:11:50.523Z,3940
2018-08-13T09:12:50.269Z,3964
2018-08-13T09:13:50.271Z,3976
2018-08-13T09:14:50.539Z,3996
2018-08-13T09:15:50.287Z,4028
2018-08-13T09:16:50.299Z,4064
2018-08-13T09:17:50.032Z,4124
2018-08-13T09:18:50.298Z,4216
2018-08-13T09:19:50.301Z,4348
2018-08-13T09:20:50.305Z,4488
2018-08-13T09:21:50.311Z,4604
2018-08-13T09:22:50.314Z,4732
2018-08-13T09:23:50.587Z,4820
2018-08-13T09:24:50.335Z,4892
2018-08-13T09:25:50.588Z,4956
2018-08-13T09:26:50.590Z,5012
2018-08-13T09:27:50.604Z,5052
2018-08-13T09:28:50.604Z,5108
2018-08-13T09:29:50.344Z,5180
2018-08-13T09:30:50.354Z,5260
2018-08-13T09:31:50.362Z,5348
2018-08-13T09:32:49.848Z,5448
2018-08-13T09:33:50.633Z,5544
2018-08-13T09:34:50.376Z,5656
2018-08-13T09:35:50.125Z,5780
2018-08-13T09:36:50.659Z,5872
2018-08-13T09:37:50.397Z,6004
2018-08-13T09:38:50.651Z,6156
2018-08-13T09:39:50.833Z,6332
2018-08-13T09:40:50.148Z,6496
2018-08-13T09:41:50.409Z,6544
2018-08-13T09:42:50.472Z,6572
2018-08-13T09:43:50.184Z,6800
2018-08-13T09:44:50.421Z,7064
2018-08-13T09:45:50.427Z,7240
2018-08-13T09:46:50.434Z,7408
2018-08-13T09:47:50.694Z,7712
2018-08-13T09:48:50.708Z,7736
2018-08-13T09:49:50.707Z,7472
2018-08-13T09:50:50.454Z,7356
2018-08-13T09:51:50.717Z,7152
2018-08-13T09:52:50.722Z,7156
2018-08-13T09:53:50.928Z,7560
2018-08-13T09:54:50.472Z,8036
2018-08-13T09:55:50.488Z,8252
2018-08-13T09:56:50.232Z,7872
2018-08-13T09:57:50.762Z,7576
2018-08-13T09:58:50.753Z,7720
2018-08-13T09:59:50.758Z,7644
2018-08-13T10:00:50.769Z,7620
2018-08-13T10:01:50.774Z,7776
2018-08-13T10:02:50.261Z,8392
2018-08-13T10:03:50.525Z,8848
2018-08-13T10:04:50.786Z,9756
2018-08-13T10:05:50.536Z,10132
2018-08-13T10:06:50.805Z,9720
2018-08-13T10:07:50.548Z,9648
2018-08-13T10:08:50.816Z,10176
2018-08-13T10:09:50.551Z,10508
2018-08-13T10:10:50.990Z,10080
2018-08-13T10:11:50.569Z,9188
2018-08-13T10:12:50.576Z,8796
2018-08-13T10:13:50.836Z,9288
2018-08-13T10:14:50.845Z,10660
2018-08-13T10:15:50.585Z,12076
2018-08-13T10:16:51.254Z,13308
2018-08-13T10:17:51.012Z,12964
2018-08-13T10:18:50.605Z,12244
2018-08-13T10:19:50.630Z,11980
2018-08-13T10:20:50.622Z,12244
2018-08-13T10:21:50.878Z,11980
2018-08-13T10:22:50.893Z,11568
2018-08-13T10:23:50.895Z,11032
2018-08-13T10:24:50.909Z,10856
2018-08-13T10:25:50.649Z,11544
2018-08-13T10:26:50.913Z,11312
2018-08-13T10:27:50.664Z,12224
2018-08-13T10:28:50.932Z,12976
2018-08-13T10:29:51.005Z,12508
2018-08-13T10:30:50.940Z,11148
2018-08-13T10:31:50.682Z,11000
2018-08-13T10:32:50.698Z,11580
2018-08-13T10:33:50.960Z,11432
2018-08-13T10:34:50.708Z,11028
2018-08-13T10:35:50.714Z,10664
2018-08-13T10:36:50.973Z,10620
2018-08-13T10:37:50.726Z,11248
2018-08-13T10:38:50.478Z,11352
2018-08-13T10:39:50.740Z,11596
2018-08-13T10:40:50.740Z,11176
2018-08-13T10:41:50.755Z,10744
2018-08-13T10:42:51.024Z,9588
2018-08-13T10:43:51.023Z,9108
2018-08-13T10:44:51.175Z,8456
2018-08-13T10:45:51.036Z,7472
2018-08-13T10:46:51.048Z,6756
2018-08-13T10:47:50.790Z,5908
2018-08-13T10:48:50.791Z,5316
2018-08-13T10:49:51.065Z,4976
2018-08-13T10:50:50.809Z,4860
2018-08-13T10:51:50.805Z,4764
2018-08-13T10:52:50.819Z,4608
2018-08-13T10:53:51.087Z,4420
2018-08-13T10:54:50.826Z,4316
2018-08-13T10:55:50.847Z,4336
2018-08-13T10:56:51.103Z,4492
2018-08-13T10:57:50.869Z,4728
2018-08-13T10:58:51.117Z,4768
2018-08-13T10:59:50.866Z,4544
2018-08-13T11:00:51.131Z,4404
2018-08-13T11:01:50.886Z,4288
2018-08-13T11:02:51.261Z,4168
2018-08-13T11:03:50.881Z,4076
2018-08-13T11:04:50.891Z,3968
2018-08-13T11:05:50.895Z,3928
2018-08-13T11:06:51.157Z,3912
2018-08-13T11:07:51.157Z,3904
2018-08-13T11:08:51.170Z,3864
2018-08-13T11:09:51.194Z,3832
2018-08-13T11:10:50.926Z,3792
2018-08-13T11:11:50.933Z,3732
2018-08-13T11:12:51.192Z,3696
2018-08-13T11:13:50.690Z,3684
2018-08-13T11:14:51.204Z,3584
2018-08-13T11:15:50.949Z,3588
2018-08-13T11:16:50.703Z,3584
2018-08-13T11:17:50.966Z,3612
2018-08-13T11:18:50.967Z,3624
2018-08-13T11:19:51.234Z,3608
2018-08-13T11:20:51.230Z,3592
2018-08-13T11:21:50.579Z,3604
2018-08-13T11:22:51.030Z,3636
2018-08-13T11:23:51.340Z,3684
2018-08-13T11:24:51.256Z,3680
2018-08-13T11:25:51.002Z,3704
2018-08-13T11:26:50.494Z,3676
2018-08-13T11:27:51.056Z,3664
2018-08-13T11:28:51.574Z,3620
2018-08-13T11:29:51.334Z,3640
2018-08-13T11:30:51.284Z,3668
2018-08-13T11:31:51.286Z,3664
2018-08-13T11:32:51.310Z,3640
2018-08-13T11:33:51.303Z,3652
2018-08-13T11:34:51.543Z,3600
2018-08-13T11:35:51.326Z,3596
2018-08-13T11:36:51.332Z,3604
2018-08-13T11:37:51.071Z,3612
2018-08-13T11:38:51.364Z,3624
2018-08-13T11:39:51.071Z,3636
2018-08-13T11:40:51.519Z,3644
2018-08-13T11:41:51.083Z,3684
2018-08-13T11:42:51.094Z,3704
2018-08-13T11:43:51.353Z,3768
2018-08-13T11:44:51.360Z,3788
2018-08-13T11:45:50.850Z,3780
2018-08-13T11:46:51.371Z,3804
2018-08-13T11:47:51.387Z,3780
2018-08-13T11:48:51.377Z,3808
2018-08-13T11:49:51.390Z,3832
2018-08-13T11:50:51.183Z,3852
2018-08-13T11:51:51.137Z,3876
2018-08-13T11:52:50.897Z,3880
2018-08-13T11:53:51.151Z,3908
2018-08-13T11:54:51.415Z,3924
2018-08-13T11:55:51.429Z,3912
2018-08-13T11:56:51.471Z,3900
2018-08-13T11:57:51.435Z,3904
2018-08-13T11:58:51.442Z,3916
2018-08-13T11:59:51.440Z,3932
2018-08-13T12:00:51.446Z,3928
2018-08-13T12:01:51.193Z,3944
2018-08-13T12:02:51.458Z,3952
2018-08-13T12:03:51.458Z,3964
2018-08-13T12:04:51.487Z,3988
2018-08-13T12:05:51.212Z,4024
2018-08-13T12:06:51.477Z,4064
2018-08-13T12:07:51.232Z,4112
2018-08-13T12:08:51.224Z,4140
2018-08-13T12:09:51.492Z,4152
2018-08-13T12:10:50.982Z,4196
2018-08-13T12:11:51.246Z,4212
2018-08-13T12:12:51.005Z,4228
2018-08-13T12:13:51.263Z,4260
2018-08-13T12:14:51.512Z,4352
2018-08-13T12:15:51.267Z,4440
2018-08-13T12:16:51.268Z,4432
2018-08-13T12:17:51.534Z,4364
2018-08-13T12:18:51.279Z,4300
2018-08-13T12:19:51.545Z,4284
2018-08-13T12:20:51.295Z,4280
2018-08-13T12:21:51.296Z,4268
2018-08-13T12:22:51.561Z,4256
2018-08-13T12:23:51.311Z,4260
2018-08-13T12:24:51.315Z,4256
2018-08-13T12:25:51.571Z,4212
2018-08-13T12:26:51.587Z,4280
2018-08-13T12:27:51.591Z,4364
2018-08-13T12:28:51.588Z,4388
2018-08-13T12:29:51.593Z,4436
2018-08-13T12:30:51.598Z,4544
2018-08-13T12:31:51.101Z,4620
2018-08-13T12:32:51.608Z,4764
2018-08-13T12:33:51.617Z,5048
2018-08-13T12:34:51.367Z,4816
2018-08-13T12:35:51.622Z,5272
2018-08-13T12:36:51.629Z,5128
2018-08-13T12:37:51.642Z,5256
2018-08-13T12:38:51.385Z,5388
2018-08-13T12:39:51.645Z,5668
2018-08-13T12:40:51.653Z,6332
2018-08-13T12:41:51.401Z,6984
2018-08-13T12:42:51.147Z,7892
2018-08-13T12:43:51.685Z,9016
2018-08-13T12:44:51.414Z,9996
2018-08-13T12:45:51.675Z,10528
2018-08-13T12:46:51.168Z,11052
2018-08-13T12:47:51.479Z,11416
2018-08-13T12:48:51.699Z,11208
2018-08-13T12:49:51.699Z,9780
2018-08-13T12:50:51.701Z,8972
2018-08-13T12:51:51.709Z,8448
2018-08-13T12:52:51.722Z,7944
2018-08-13T12:53:51.718Z,8252
2018-08-13T12:54:51.720Z,9260
2018-08-13T12:55:51.732Z,10100
2018-08-13T12:56:51.220Z,9796
2018-08-13T12:57:51.740Z,10268
2018-08-13T12:58:51.491Z,10816
2018-08-13T12:59:51.750Z,10212
2018-08-13T13:00:51.751Z,10132
2018-08-13T13:01:51.759Z,9892
2018-08-13T13:02:51.513Z,9252
2018-08-13T13:03:51.777Z,9240
2018-08-13T13:04:51.778Z,9176
2018-08-13T13:05:51.793Z,9656
2018-08-13T13:06:51.529Z,9636
2018-08-13T13:07:51.851Z,9704
2018-08-13T13:08:51.806Z,9276
2018-08-13T13:09:51.546Z,8476
2018-08-13T13:10:51.565Z,8040
2018-08-13T13:11:51.300Z,7456
2018-08-13T13:12:51.814Z,7036
2018-08-13T13:13:51.828Z,7148
2018-08-13T13:14:51.911Z,6856
2018-08-13T13:15:51.572Z,7688
2018-08-13T13:16:51.581Z,8052
2018-08-13T13:17:51.859Z,8184
2018-08-13T13:18:51.844Z,7164
2018-08-13T13:19:51.851Z,6708
2018-08-13T13:20:51.862Z,6420
2018-08-13T13:21:51.605Z,6240
2018-08-13T13:22:51.608Z,6236
2018-08-13T13:23:51.360Z,6268
2018-08-13T13:24:51.365Z,6216
2018-08-13T13:25:51.648Z,6332
2018-08-13T13:26:51.622Z,6356
2018-08-13T13:27:51.672Z,6144
2018-08-13T13:28:51.374Z,6448
2018-08-13T13:29:51.902Z,6212
2018-08-13T13:30:51.389Z,6176
2018-08-13T13:31:51.910Z,6240
2018-08-13T13:32:51.921Z,6132
2018-08-13T13:33:51.659Z,6884
2018-08-13T13:34:51.862Z,7908
2018-08-13T13:35:51.675Z,8356
2018-08-13T13:36:51.936Z,8684
2018-08-13T13:37:51.930Z,7800
2018-08-13T13:38:51.688Z,7384
2018-08-13T13:39:51.690Z,8208